createdAt,value
2023-02-19T00:01:35.853Z,4.51
2023-02-19T00:04:06.617Z,4.53
2023-02-19T00:06:34.393Z,4.50
2023-02-19T00:09:01.044Z,4.49
2023-02-19T00:11:30.656Z,4.46
2023-02-19T00:13:59.007Z,4.44
2023-02-19T00:16:28.104Z,4.43
2023-02-19T00:18:57.292Z,4.42
2023-02-19T00:21:24.677Z,4.43
2023-02-19T00:23:53.055Z,4.42
2023-02-19T00:26:20.611Z,4.41
2023-02-19T00:28:50.144Z,4.43
2023-02-19T00:31:17.595Z,4.46
2023-02-19T00:33:45.725Z,4.46
2023-02-19T00:36:14.071Z,4.40
2023-02-19T00:38:41.830Z,4.40
2023-02-19T00:41:18.548Z,4.38
2023-02-19T00:43:46.323Z,4.33
2023-02-19T00:46:15.413Z,4.32
2023-02-19T00:48:42.032Z,4.29
2023-02-19T00:51:08.921Z,4.32
2023-02-19T00:53:36.251Z,4.33
2023-02-19T00:56:03.811Z,4.34
2023-02-19T00:58:30.512Z,4.36
2023-02-19T01:00:57.658Z,4.37
2023-02-19T01:03:24.537Z,4.38
2023-02-19T01:05:52.233Z,4.38
2023-02-19T01:08:18.875Z,4.36
2023-02-19T01:10:45.784Z,4.36
2023-02-19T01:13:12.507Z,4.35
2023-02-19T01:15:39.180Z,4.34
2023-02-19T01:18:06.030Z,4.33
2023-02-19T01:20:33.559Z,4.31
2023-02-19T01:23:00.410Z,4.28
2023-02-19T01:25:27.121Z,4.26
2023-02-19T01:27:53.666Z,4.26
2023-02-19T01:30:20.261Z,4.26
2023-02-19T01:32:46.848Z,4.23
2023-02-19T01:35:13.546Z,4.19
2023-02-19T01:37:40.295Z,4.18
2023-02-19T01:40:07.956Z,4.16
2023-02-19T01:42:34.616Z,4.14
2023-02-19T01:45:23.213Z,4.14
2023-02-19T01:47:57.237Z,4.10
2023-02-19T01:50:27.747Z,4.13
2023-02-19T01:52:54.992Z,4.12
2023-02-19T01:55:21.943Z,4.12
2023-02-19T01:57:53.357Z,4.14
2023-02-19T02:00:20.071Z,4.15
2023-02-19T02:02:50.817Z,4.16
2023-02-19T02:05:46.598Z,4.23
2023-02-19T02:08:33.142Z,4.28
2023-02-19T02:10:59.981Z,4.28
2023-02-19T02:13:27.546Z,4.26
2023-02-19T02:16:20.619Z,4.28
2023-02-19T02:19:01.041Z,4.29
2023-02-19T02:22:00.966Z,4.25
2023-02-19T02:24:46.920Z,4.25
2023-02-19T02:27:26.820Z,4.23
2023-02-19T02:30:16.310Z,4.25
2023-02-19T02:32:53.873Z,4.22
2023-02-19T02:35:29.891Z,4.23
2023-02-19T02:38:03.544Z,4.26
2023-02-19T02:40:31.227Z,4.24
2023-02-19T02:42:59.812Z,4.24
2023-02-19T02:45:34.934Z,4.25
2023-02-19T02:48:17.549Z,4.25
2023-02-19T02:50:59.529Z,4.24
2023-02-19T02:54:09.314Z,4.27
2023-02-19T02:56:37.014Z,4.27
2023-02-19T02:59:08.100Z,4.23
2023-02-19T03:01:55.923Z,4.23
2023-02-19T03:04:37.309Z,4.24
2023-02-19T03:07:08.900Z,4.24
2023-02-19T03:09:42.463Z,4.21
2023-02-19T03:12:32.925Z,4.23
2023-02-19T03:15:23.195Z,4.21
2023-02-19T03:18:18.892Z,4.24
2023-02-19T03:20:50.092Z,4.22
2023-02-19T03:23:19.383Z,4.22
2023-02-19T03:26:05.337Z,4.22
2023-02-19T03:28:58.902Z,4.25
2023-02-19T03:31:29.524Z,4.26
2023-02-19T03:34:02.857Z,4.27
2023-02-19T03:36:51.925Z,4.28
2023-02-19T03:39:21.912Z,4.28
2023-02-19T03:41:55.028Z,4.28
2023-02-19T03:44:32.226Z,4.29
2023-02-19T03:47:03.034Z,4.30
2023-02-19T03:49:36.464Z,4.33
2023-02-19T03:52:16.528Z,4.33
2023-02-19T03:54:56.614Z,4.33
2023-02-19T03:57:49.689Z,4.34
2023-02-19T04:00:22.576Z,4.33
2023-02-19T04:03:09.552Z,4.32
2023-02-19T04:05:42.388Z,4.33
2023-02-19T04:08:15.288Z,4.32
2023-02-19T04:10:48.802Z,4.35
2023-02-19T04:13:27.270Z,4.35
2023-02-19T04:16:00.327Z,4.32
2023-02-19T04:18:32.194Z,4.33
2023-02-19T04:20:59.808Z,4.32
2023-02-19T04:23:30.109Z,4.33
2023-02-19T04:26:00.708Z,4.33
2023-02-19T04:28:28.469Z,4.33
2023-02-19T04:30:55.048Z,4.32
2023-02-19T04:33:21.689Z,4.31
2023-02-19T04:35:48.214Z,4.31
2023-02-19T04:38:15.010Z,4.29
2023-02-19T04:40:41.742Z,4.27
2023-02-19T04:43:08.347Z,4.28
2023-02-19T04:45:37.285Z,4.27
2023-02-19T04:48:04.580Z,4.31
2023-02-19T04:50:31.385Z,4.29
2023-02-19T04:52:58.048Z,4.28
2023-02-19T04:55:24.711Z,4.26
2023-02-19T04:57:51.250Z,4.26
2023-02-19T05:00:17.884Z,4.23
2023-02-19T05:02:44.436Z,4.22
2023-02-19T05:05:11.055Z,4.22
2023-02-19T05:07:37.613Z,4.23
2023-02-19T05:10:04.569Z,4.21
2023-02-19T05:12:31.395Z,4.21
2023-02-19T05:14:57.957Z,4.20
2023-02-19T05:17:24.655Z,4.19
2023-02-19T05:19:51.294Z,4.20
2023-02-19T05:22:18.225Z,4.19
2023-02-19T05:24:45.438Z,4.18
2023-02-19T05:27:11.984Z,4.19
2023-02-19T05:29:38.560Z,4.18
2023-02-19T05:32:05.289Z,4.19
2023-02-19T05:34:32.022Z,4.17
2023-02-19T05:36:58.820Z,4.15
2023-02-19T05:39:25.364Z,4.16
2023-02-19T05:41:52.042Z,4.16
2023-02-19T05:44:18.636Z,4.16
2023-02-19T05:46:45.270Z,4.18
2023-02-19T05:49:12.075Z,4.18
2023-02-19T05:51:38.642Z,4.19
2023-02-19T05:54:05.525Z,4.22
2023-02-19T05:56:40.604Z,4.21
2023-02-19T05:59:19.548Z,4.23
2023-02-19T06:01:47.251Z,4.24
2023-02-19T06:04:15.183Z,4.25
2023-02-19T06:06:42.356Z,4.25
2023-02-19T06:09:10.053Z,4.26
2023-02-19T06:11:37.550Z,4.28
2023-02-19T06:14:05.798Z,4.29
2023-02-19T06:16:33.796Z,4.30
2023-02-19T06:19:03.995Z,4.33
2023-02-19T06:21:31.077Z,4.36
2023-02-19T06:23:57.645Z,4.37
2023-02-19T06:26:25.392Z,4.38
2023-02-19T06:28:53.073Z,4.39
2023-02-19T06:31:21.358Z,4.42
2023-02-19T06:33:50.000Z,4.43
2023-02-19T06:36:18.675Z,4.46
2023-02-19T06:38:45.384Z,4.50
2023-02-19T06:41:12.953Z,4.52
2023-02-19T06:43:40.321Z,4.51
2023-02-19T06:46:08.070Z,4.52
2023-02-19T06:48:35.040Z,4.54
2023-02-19T06:51:02.185Z,4.57
2023-02-19T06:53:29.049Z,4.55
2023-02-19T06:56:07.883Z,4.56
2023-02-19T06:58:34.926Z,4.56
2023-02-19T07:01:01.574Z,4.55
2023-02-19T07:03:28.394Z,4.59
2023-02-19T07:05:55.043Z,4.63
2023-02-19T07:08:21.733Z,4.62
2023-02-19T07:10:56.861Z,4.65
2023-02-19T07:13:26.072Z,4.66
2023-02-19T07:15:59.573Z,4.67
2023-02-19T07:18:26.242Z,4.67
2023-02-19T07:20:53.553Z,4.69
2023-02-19T07:23:20.395Z,4.72
2023-02-19T07:25:47.137Z,4.74
2023-02-19T07:28:13.873Z,4.74
2023-02-19T07:30:40.882Z,4.76
2023-02-19T07:33:10.390Z,4.81
2023-02-19T07:35:37.128Z,4.85
2023-02-19T07:38:03.807Z,4.86
2023-02-19T07:40:30.328Z,4.87
2023-02-19T07:42:59.758Z,4.88
2023-02-19T07:45:26.586Z,4.89
2023-02-19T07:47:53.385Z,4.93
2023-02-19T07:50:19.964Z,4.95
2023-02-19T07:52:46.791Z,4.99
2023-02-19T07:55:13.630Z,5.02
2023-02-19T07:57:41.060Z,5.02
2023-02-19T08:00:08.257Z,5.03
2023-02-19T08:02:57.840Z,5.02
2023-02-19T08:05:24.676Z,5.01
2023-02-19T08:07:51.302Z,5.00
2023-02-19T08:10:36.775Z,4.98
2023-02-19T08:13:18.777Z,4.97
2023-02-19T08:15:46.557Z,4.99
2023-02-19T08:18:14.452Z,4.98
2023-02-19T08:20:41.563Z,5.01
2023-02-19T08:23:08.983Z,5.03
2023-02-19T08:25:36.348Z,5.06
2023-02-19T08:28:04.091Z,5.11
2023-02-19T08:30:32.678Z,5.11
2023-02-19T08:33:02.275Z,5.14
2023-02-19T08:35:29.201Z,5.16
2023-02-19T08:37:57.364Z,5.17
2023-02-19T08:40:26.905Z,5.19
2023-02-19T08:42:54.610Z,5.17
2023-02-19T08:45:23.574Z,5.18
2023-02-19T08:47:50.234Z,5.19
2023-02-19T08:50:16.858Z,5.17
2023-02-19T08:52:43.495Z,5.20
2023-02-19T08:55:10.046Z,5.20
2023-02-19T08:57:37.096Z,5.17
2023-02-19T09:00:08.693Z,5.13
2023-02-19T09:02:37.230Z,5.10
2023-02-19T09:05:05.095Z,5.06
2023-02-19T09:07:32.258Z,5.06
2023-02-19T09:10:00.205Z,5.02
2023-02-19T09:12:26.912Z,4.97
2023-02-19T09:14:54.929Z,4.96
2023-02-19T09:17:22.137Z,4.95
2023-02-19T09:19:50.804Z,4.96
2023-02-19T09:22:17.530Z,4.94
2023-02-19T09:24:44.716Z,4.95
2023-02-19T09:27:19.448Z,4.96
2023-02-19T09:29:46.793Z,4.92
2023-02-19T09:32:14.020Z,4.92
2023-02-19T09:34:41.195Z,4.88
2023-02-19T09:37:08.136Z,4.83
2023-02-19T09:39:34.959Z,4.81
2023-02-19T09:42:14.869Z,4.78
2023-02-19T09:44:45.583Z,4.78
2023-02-19T09:47:25.266Z,4.79
2023-02-19T09:49:55.569Z,4.78
2023-02-19T09:52:24.949Z,4.78
2023-02-19T09:54:58.630Z,4.76
2023-02-19T09:57:29.304Z,4.75
2023-02-19T10:00:13.641Z,4.73
2023-02-19T10:02:40.234Z,4.71
2023-02-19T10:05:13.649Z,4.68
2023-02-19T10:07:47.278Z,4.67
2023-02-19T10:10:13.842Z,4.64
2023-02-19T10:12:46.682Z,4.64
2023-02-19T10:15:29.094Z,4.63
2023-02-19T10:17:56.043Z,4.64
2023-02-19T10:20:26.080Z,4.65
2023-02-19T10:23:03.302Z,4.65
2023-02-19T10:25:31.339Z,4.67
2023-02-19T10:27:59.308Z,4.67
2023-02-19T10:30:30.946Z,4.66
2023-02-19T10:33:18.769Z,4.65
2023-02-19T10:36:01.699Z,4.54
2023-02-19T10:38:38.508Z,4.37
2023-02-19T10:41:17.266Z,4.26
2023-02-19T10:43:55.461Z,4.06
2023-02-19T10:46:28.897Z,3.91
2023-02-19T10:48:58.917Z,3.79
2023-02-19T10:54:04.981Z,3.62
2023-02-19T10:56:33.122Z,3.50
2023-02-19T10:59:26.040Z,3.41
2023-02-19T11:01:59.924Z,3.35
2023-02-19T11:04:33.281Z,3.31
2023-02-19T11:07:10.967Z,3.28
2023-02-19T11:09:39.946Z,3.23
2023-02-19T11:12:08.503Z,3.16
2023-02-19T11:14:36.630Z,3.19
2023-02-19T11:17:05.041Z,3.19
2023-02-19T11:19:39.474Z,3.19
2023-02-19T11:22:41.377Z,3.14
2023-02-19T11:25:14.106Z,3.10
2023-02-19T11:28:06.624Z,3.10
2023-02-19T11:30:35.882Z,3.08
2023-02-19T11:33:24.026Z,3.09
2023-02-19T11:35:57.076Z,3.08
2023-02-19T11:38:23.628Z,3.08
2023-02-19T11:40:56.358Z,3.09
2023-02-19T11:43:25.958Z,3.10
2023-02-19T11:46:22.090Z,3.12
2023-02-19T11:48:57.812Z,3.19
2023-02-19T11:51:33.730Z,3.21
2023-02-19T11:54:07.116Z,3.18
2023-02-19T11:56:36.522Z,3.13
2023-02-19T11:59:09.190Z,3.10
2023-02-19T12:01:50.810Z,3.08
2023-02-19T12:04:39.224Z,3.02
2023-02-19T12:07:32.326Z,2.93
2023-02-19T12:10:01.762Z,2.88
2023-02-19T12:12:50.834Z,2.84
2023-02-19T12:15:39.132Z,2.78
2023-02-19T12:18:25.669Z,2.76
2023-02-19T12:21:11.881Z,2.70
2023-02-19T12:24:28.818Z,2.66
2023-02-19T12:27:24.269Z,2.58
2023-02-19T12:29:56.418Z,2.57
2023-02-19T12:32:29.343Z,2.57
2023-02-19T12:35:24.714Z,2.57
2023-02-19T12:38:02.075Z,2.57
2023-02-19T12:41:04.402Z,2.59
2023-02-19T12:43:33.605Z,2.62
2023-02-19T12:46:06.340Z,2.61
2023-02-19T12:48:39.014Z,2.62
2023-02-19T12:51:15.643Z,2.59
2023-02-19T12:53:52.048Z,2.62
2023-02-19T12:56:24.609Z,2.64
2023-02-19T12:59:19.958Z,2.60
2023-02-19T13:02:00.013Z,2.54
2023-02-19T13:04:42.734Z,2.48
2023-02-19T13:07:12.128Z,2.44
2023-02-19T13:10:10.951Z,2.43
2023-02-19T13:12:42.466Z,2.35
2023-02-19T13:15:34.206Z,2.31
2023-02-19T13:18:04.729Z,2.28
2023-02-19T13:20:38.642Z,2.29
2023-02-19T13:23:48.592Z,2.31
2023-02-19T13:26:36.435Z,2.32
2023-02-19T13:29:35.158Z,2.35
2023-02-19T13:32:23.471Z,2.33
2023-02-19T13:35:11.430Z,2.31
2023-02-19T13:37:39.148Z,2.27
2023-02-19T13:40:18.288Z,2.25
2023-02-19T13:42:53.336Z,2.19
2023-02-19T13:45:40.856Z,2.16
2023-02-19T13:48:28.448Z,2.13
2023-02-19T13:51:33.786Z,2.09
2023-02-19T13:54:12.513Z,2.06
2023-02-19T13:56:40.479Z,2.02
2023-02-19T13:59:10.245Z,1.96
2023-02-19T14:01:52.163Z,1.96
2023-02-19T14:04:20.589Z,1.93
2023-02-19T14:07:02.368Z,1.97
2023-02-19T14:09:43.192Z,1.98
2023-02-19T14:12:09.744Z,1.99
2023-02-19T14:14:49.680Z,2.04
2023-02-19T14:17:32.902Z,2.07
2023-02-19T14:19:59.598Z,2.06
2023-02-19T14:22:44.729Z,2.03
2023-02-19T14:25:26.480Z,2.02
2023-02-19T14:28:11.593Z,1.97
2023-02-19T14:30:55.157Z,1.92
2023-02-19T14:33:25.075Z,1.84
2023-02-19T14:36:02.885Z,1.81
2023-02-19T14:38:35.979Z,1.77
2023-02-19T14:41:04.283Z,1.75
2023-02-19T14:43:33.227Z,1.73
2023-02-19T14:46:08.445Z,1.70
2023-02-19T14:48:39.108Z,1.64
2023-02-19T14:51:31.955Z,1.63
2023-02-19T14:54:04.976Z,1.55
2023-02-19T14:56:34.367Z,1.50
2023-02-19T14:59:12.873Z,1.46
2023-02-19T15:01:39.805Z,1.42
2023-02-19T15:04:21.585Z,1.44
2023-02-19T15:06:49.003Z,1.41
2023-02-19T15:09:16.213Z,1.40
2023-02-19T15:11:43.331Z,1.37
2023-02-19T15:14:22.266Z,1.38
2023-02-19T15:16:57.604Z,1.50
2023-02-19T15:19:24.448Z,1.46
2023-02-19T15:21:51.664Z,1.42
2023-02-19T15:24:18.855Z,1.35
2023-02-19T15:26:53.654Z,1.30
2023-02-19T15:29:24.155Z,1.30
2023-02-19T15:31:59.339Z,1.24
2023-02-19T15:34:28.262Z,1.22
2023-02-19T15:37:00.415Z,1.20
2023-02-19T15:39:36.237Z,1.25
2023-02-19T15:42:05.312Z,1.25
2023-02-19T15:44:41.755Z,1.20
2023-02-19T15:47:23.931Z,1.22
2023-02-19T15:49:57.707Z,1.20
2023-02-19T15:52:31.108Z,1.20
2023-02-19T15:55:35.293Z,1.19
2023-02-19T15:58:18.285Z,1.18
2023-02-19T16:00:53.485Z,1.12
2023-02-19T16:03:23.479Z,1.09
2023-02-19T16:06:10.798Z,1.09
2023-02-19T16:09:03.080Z,1.05
2023-02-19T16:11:36.326Z,1.06
2023-02-19T16:14:28.567Z,1.03
2023-02-19T16:16:59.861Z,1.02
2023-02-19T16:19:42.888Z,1.02
2023-02-19T16:22:21.343Z,1.01
2023-02-19T16:24:57.227Z,1.00
2023-02-19T16:27:39.796Z,1.02
2023-02-19T16:30:27.859Z,0.95
2023-02-19T16:33:37.396Z,0.94
2023-02-19T16:36:19.131Z,0.93
2023-02-19T16:39:07.644Z,0.92
2023-02-19T16:42:10.160Z,0.91
2023-02-19T16:44:36.923Z,0.91
2023-02-19T16:47:14.754Z,0.89
2023-02-19T16:49:42.147Z,0.88
2023-02-19T16:52:13.987Z,0.85
2023-02-19T16:54:40.898Z,0.83
2023-02-19T16:57:07.527Z,0.83
2023-02-19T16:59:34.183Z,0.80
2023-02-19T17:02:04.345Z,0.78
2023-02-19T17:04:31.220Z,0.78
2023-02-19T17:06:57.923Z,0.75
2023-02-19T17:09:24.594Z,0.73
2023-02-19T17:11:51.340Z,0.71
2023-02-19T17:14:18.701Z,0.69
2023-02-19T17:16:47.378Z,0.67
2023-02-19T17:19:23.630Z,0.67
2023-02-19T17:21:50.386Z,0.68
2023-02-19T17:24:17.087Z,0.63
2023-02-19T17:26:43.668Z,0.63
2023-02-19T17:29:13.347Z,0.63
2023-02-19T17:31:40.482Z,0.64
2023-02-19T17:34:07.649Z,0.63
2023-02-19T17:36:34.389Z,0.60
2023-02-19T17:39:02.454Z,0.60
2023-02-19T17:41:29.323Z,0.60
2023-02-19T17:43:56.141Z,0.60
2023-02-19T17:46:25.659Z,0.61
2023-02-19T17:48:53.326Z,0.62
2023-02-19T17:51:20.672Z,0.60
2023-02-19T17:53:47.528Z,0.57
2023-02-19T17:56:25.041Z,0.58
2023-02-19T17:58:52.089Z,0.58
2023-02-19T18:01:19.077Z,0.58
2023-02-19T18:03:46.011Z,0.58
2023-02-19T18:06:13.168Z,0.54
2023-02-19T18:08:46.344Z,0.53
2023-02-19T18:11:13.370Z,0.54
2023-02-19T18:13:40.192Z,0.52
2023-02-19T18:16:10.109Z,0.51
2023-02-19T18:18:39.836Z,0.50
2023-02-19T18:21:11.543Z,0.48
2023-02-19T18:23:38.750Z,0.46
2023-02-19T18:26:09.859Z,0.45
2023-02-19T18:28:38.036Z,0.44
2023-02-19T18:31:06.870Z,0.40
2023-02-19T18:33:34.595Z,0.40
2023-02-19T18:36:01.372Z,0.40
2023-02-19T18:38:27.957Z,0.37
2023-02-19T18:40:55.401Z,0.37
2023-02-19T18:43:23.080Z,0.31
2023-02-19T18:45:49.839Z,0.28
2023-02-19T18:48:16.513Z,0.28
2023-02-19T18:50:43.454Z,0.26
2023-02-19T18:53:11.040Z,0.22
2023-02-19T18:55:37.806Z,0.17
2023-02-19T18:58:04.392Z,0.14
2023-02-19T19:00:31.241Z,0.12
2023-02-19T19:02:59.042Z,0.08
2023-02-19T19:05:26.176Z,0.07
2023-02-19T19:07:54.776Z,0.03
2023-02-19T19:10:22.829Z,0.01
2023-02-19T19:12:49.527Z,-0.02
2023-02-19T19:15:18.478Z,-0.03
2023-02-19T19:17:46.952Z,-0.07
2023-02-19T19:20:16.843Z,-0.10
2023-02-19T19:22:44.388Z,-0.08
2023-02-19T19:25:11.217Z,-0.12
2023-02-19T19:27:38.005Z,-0.12
2023-02-19T19:30:05.966Z,-0.12
2023-02-19T19:32:32.813Z,-0.13
2023-02-19T19:34:59.540Z,-0.14
2023-02-19T19:37:28.665Z,-0.16
2023-02-19T19:39:55.985Z,-0.18
2023-02-19T19:42:23.857Z,-0.17
2023-02-19T19:44:50.668Z,-0.18
2023-02-19T19:47:18.387Z,-0.18
2023-02-19T19:49:47.613Z,-0.20
2023-02-19T19:52:14.708Z,-0.20
2023-02-19T19:54:42.583Z,-0.20
2023-02-19T19:57:09.740Z,-0.20
2023-02-19T19:59:38.522Z,-0.21
2023-02-19T20:02:06.566Z,-0.22
2023-02-19T20:04:33.424Z,-0.23
2023-02-19T20:07:01.125Z,-0.24
2023-02-19T20:09:28.559Z,-0.27
2023-02-19T20:11:55.953Z,-0.28
2023-02-19T20:14:24.445Z,-0.30
2023-02-19T20:16:52.664Z,-0.31
2023-02-19T20:19:20.312Z,-0.36
2023-02-19T20:21:49.056Z,-0.36
2023-02-19T20:24:18.151Z,-0.38
2023-02-19T20:26:44.852Z,-0.40
2023-02-19T20:29:11.668Z,-0.42
2023-02-19T20:31:38.885Z,-0.40
2023-02-19T20:34:05.710Z,-0.40
2023-02-19T20:36:32.444Z,-0.42
2023-02-19T20:38:59.276Z,-0.44
2023-02-19T20:41:26.088Z,-0.44
2023-02-19T20:43:53.411Z,-0.46
2023-02-19T20:46:20.404Z,-0.49
2023-02-19T20:48:47.076Z,-0.50
2023-02-19T20:51:13.890Z,-0.50
2023-02-19T20:53:41.277Z,-0.52
2023-02-19T20:56:08.205Z,-0.52
2023-02-19T20:58:35.555Z,-0.54
2023-02-19T21:01:02.419Z,-0.56
2023-02-19T21:03:30.096Z,-0.59
2023-02-19T21:05:56.740Z,-0.62
2023-02-19T21:08:23.352Z,-0.63
2023-02-19T21:10:50.060Z,-0.67
2023-02-19T21:13:16.890Z,-0.68
2023-02-19T21:15:48.870Z,-0.69
2023-02-19T21:18:16.966Z,-0.69
2023-02-19T21:20:43.648Z,-0.71
2023-02-19T21:23:14.796Z,-0.73
2023-02-19T21:25:41.628Z,-0.74
2023-02-19T21:28:09.707Z,-0.75
2023-02-19T21:30:39.161Z,-0.76
2023-02-19T21:33:05.764Z,-0.78
2023-02-19T21:35:32.647Z,-0.80
2023-02-19T21:37:59.248Z,-0.81
2023-02-19T21:40:27.477Z,-0.84
2023-02-19T21:42:54.226Z,-0.85
2023-02-19T21:45:20.880Z,-0.85
2023-02-19T21:47:47.475Z,-0.86
2023-02-19T21:50:14.014Z,-0.83
2023-02-19T21:52:41.382Z,-0.84
2023-02-19T21:55:07.969Z,-0.85
2023-02-19T21:57:34.562Z,-0.85
2023-02-19T22:00:01.192Z,-0.86
2023-02-19T22:02:27.762Z,-0.86
2023-02-19T22:04:54.660Z,-0.84
2023-02-19T22:07:21.714Z,-0.84
2023-02-19T22:09:49.881Z,-0.87
2023-02-19T22:12:17.679Z,-0.87
2023-02-19T22:14:45.083Z,-0.88
2023-02-19T22:17:12.279Z,-0.90
2023-02-19T22:19:40.819Z,-0.91
2023-02-19T22:22:07.654Z,-0.91
2023-02-19T22:24:36.899Z,-0.94
2023-02-19T22:27:04.105Z,-0.95
2023-02-19T22:29:33.537Z,-0.96
2023-02-19T22:32:00.297Z,-0.96
2023-02-19T22:34:27.735Z,-0.96
2023-02-19T22:36:54.369Z,-0.97
2023-02-19T22:39:26.119Z,-0.97
2023-02-19T22:41:53.495Z,-0.97
2023-02-19T22:44:20.123Z,-0.96
2023-02-19T22:46:55.556Z,-0.96
2023-02-19T22:49:23.064Z,-0.96
2023-02-19T22:54:12.049Z,-0.92
2023-02-19T22:56:40.028Z,-0.94
2023-02-19T22:59:07.989Z,-0.92
2023-02-19T23:01:36.105Z,-0.94
2023-02-19T23:04:04.275Z,-0.94
2023-02-19T23:06:35.048Z,-0.95
2023-02-19T23:09:11.053Z,-0.93
2023-02-19T23:11:39.503Z,-0.94
2023-02-19T23:14:07.963Z,-0.91
2023-02-19T23:16:36.736Z,-0.91
2023-02-19T23:19:06.563Z,-0.88
2023-02-19T23:21:34.582Z,-0.87
2023-02-19T23:24:02.633Z,-0.87
2023-02-19T23:26:30.679Z,-0.88
2023-02-19T23:28:58.621Z,-0.86
2023-02-19T23:31:26.971Z,-0.84
2023-02-19T23:33:55.392Z,-0.84
2023-02-19T23:36:23.953Z,-0.82
2023-02-19T23:38:52.081Z,-0.84
2023-02-19T23:41:38.795Z,-0.84
2023-02-19T23:44:06.692Z,-0.82
2023-02-19T23:46:34.570Z,-0.82
2023-02-19T23:49:02.640Z,-0.84
2023-02-19T23:51:30.569Z,-0.86
2023-02-19T23:53:58.582Z,-0.87
2023-02-19T23:56:28.644Z,-0.87
2023-02-19T23:58:56.856Z,-0.88
